Time;durP1;ratioP1;P1;durP2;ratioP2;P2;SDS_P1;SDS_P2;PMS_P1;PMS_P2;Temp;Humidity;BMP_temperature;BMP_pressure;BME280_temperature;BME280_humidity;BME280_pressure;Samples;Min_cycle;Max_cycle;Signal;HPM_P1;HPM_P2
2023/12/11 00:00:27;;;;;;;7.10;6.80;;;10.40;39.90;;;;;;5067115;28;20883;-78
2023/12/11 00:02:53;;;;;;;6.40;6.10;;;10.40;40.00;;;;;;5055885;28;20573;-78
2023/12/11 00:05:18;;;;;;;5.97;5.77;;;10.40;39.30;;;;;;5055871;28;20171;-78
2023/12/11 00:07:44;;;;;;;5.57;5.37;;;10.40;39.30;;;;;;5072537;28;20209;-78
2023/12/11 00:10:09;;;;;;;6.63;6.33;;;10.50;39.10;;;;;;5075268;28;20175;-78
2023/12/11 00:12:36;;;;;;;6.90;6.60;;;10.40;39.20;;;;;;5065429;23;20224;-78
2023/12/11 00:15:02;;;;;;;6.67;6.37;;;10.50;39.50;;;;;;5048113;28;20269;-78
2023/12/11 00:17:28;;;;;;;5.90;5.70;;;10.50;39.20;;;;;;5044211;28;20423;-77
2023/12/11 00:19:53;;;;;;;6.07;5.87;;;10.40;39.40;;;;;;5046698;28;20423;-78
2023/12/11 00:22:19;;;;;;;6.50;6.10;;;10.40;39.50;;;;;;5051960;28;20436;-78
2023/12/11 00:24:45;;;;;;;6.40;6.20;;;10.40;39.90;;;;;;5056078;28;20188;-78
2023/12/11 00:27:11;;;;;;;6.53;6.23;;;10.40;39.70;;;;;;5049027;28;20743;-78
2023/12/11 00:29:38;;;;;;;5.63;5.40;;;10.40;39.80;;;;;;5061077;28;20663;-79
2023/12/11 00:32:04;;;;;;;6.47;6.27;;;10.40;39.80;;;;;;5045228;28;20423;-78
2023/12/11 00:34:30;;;;;;;5.73;5.53;;;10.40;40.20;;;;;;5048164;28;20459;-78
2023/12/11 00:36:56;;;;;;;5.70;5.50;;;10.50;39.80;;;;;;5055912;28;20180;-79
2023/12/11 00:39:21;;;;;;;5.60;5.40;;;10.50;39.50;;;;;;5047294;28;20415;-78
2023/12/11 00:41:47;;;;;;;5.70;5.50;;;10.50;39.70;;;;;;5045333;28;20202;-77
2023/12/11 00:44:12;;;;;;;5.73;5.53;;;10.50;39.40;;;;;;5049005;28;20201;-78
2023/12/11 00:46:38;;;;;;;6.50;6.30;;;10.60;39.00;;;;;;5048796;28;20184;-78
2023/12/11 00:49:03;;;;;;;6.90;6.60;;;10.70;39.20;;;;;;5055382;28;20226;-79
2023/12/11 00:51:29;;;;;;;6.10;5.90;;;10.80;38.60;;;;;;5052930;28;20237;-79
2023/12/11 00:53:54;;;;;;;6.67;6.47;;;10.70;38.80;;;;;;5043493;28;20545;-79
2023/12/11 00:56:20;;;;;;;6.90;6.60;;;10.70;39.10;;;;;;5045949;28;20184;-78
2023/12/11 00:58:45;;;;;;;9.30;8.80;;;10.60;39.70;;;;;;5055149;28;20221;-79
2023/12/11 01:01:11;;;;;;;6.20;6.00;;;10.70;40.30;;;;;;5054951;28;20615;-77
2023/12/11 01:03:37;;;;;;;5.90;5.70;;;10.70;40.10;;;;;;5056944;28;20678;-79
2023/12/11 01:06:03;;;;;;;7.03;6.83;;;10.70;40.10;;;;;;5046627;28;20438;-79
2023/12/11 01:08:30;;;;;;;6.03;5.83;;;10.80;39.80;;;;;;5045822;28;20187;-79
2023/12/11 01:10:55;;;;;;;7.90;7.60;;;10.70;40.10;;;;;;5059607;28;20196;-79
2023/12/11 01:13:21;;;;;;;6.23;6.03;;;10.80;40.40;;;;;;5045229;28;20455;-78
2023/12/11 01:15:46;;;;;;;6.47;6.27;;;10.90;39.90;;;;;;5047985;28;20250;-78
2023/12/11 01:18:12;;;;;;;5.90;5.60;;;11.00;38.90;;;;;;5046082;28;20180;-78
2023/12/11 01:20:38;;;;;;;6.60;6.30;;;11.00;39.20;;;;;;5052485;28;20531;-79
2023/12/11 01:23:04;;;;;;;6.67;6.37;;;11.20;39.00;;;;;;5046745;28;20283;-79
2023/12/11 01:25:30;;;;;;;6.73;6.53;;;11.10;38.40;;;;;;5045990;28;20965;-79
2023/12/11 01:27:55;;;;;;;7.30;7.03;;;11.00;38.80;;;;;;5048114;28;20422;-78
2023/12/11 01:30:21;;;;;;;6.70;6.50;;;11.00;39.10;;;;;;5054853;28;20195;-77
2023/12/11 01:32:46;;;;;;;7.03;6.73;;;11.10;38.70;;;;;;5045038;28;20283;-78
2023/12/11 01:35:12;;;;;;;6.30;6.00;;;11.10;38.90;;;;;;5048053;28;20712;-78
2023/12/11 01:37:37;;;;;;;6.80;6.60;;;11.00;39.40;;;;;;5055237;28;20291;-78
2023/12/11 01:40:05;;;;;;;6.23;5.90;;;11.00;39.90;;;;;;5046282;28;20255;-78
2023/12/11 01:42:32;;;;;;;6.07;5.87;;;11.10;39.90;;;;;;5046737;28;20196;-78
2023/12/11 01:44:57;;;;;;;6.37;6.17;;;11.00;39.90;;;;;;5046965;28;20445;-79
2023/12/11 01:47:23;;;;;;;6.60;6.40;;;11.10;39.90;;;;;;5047297;28;20427;-79
2023/12/11 01:49:49;;;;;;;6.80;6.50;;;11.30;39.70;;;;;;5043683;28;20195;-78
2023/12/11 01:52:15;;;;;;;6.90;6.70;;;11.30;38.90;;;;;;5044933;28;20236;-78
2023/12/11 01:54:41;;;;;;;6.90;6.70;;;11.50;38.50;;;;;;5044582;28;20557;-79
2023/12/11 01:57:08;;;;;;;6.57;6.37;;;11.50;38.30;;;;;;5044711;28;20430;-79
2023/12/11 01:59:34;;;;;;;7.20;7.00;;;11.60;37.90;;;;;;5047282;28;20428;-79
2023/12/11 02:02:02;;;;;;;7.17;6.77;;;11.60;38.00;;;;;;5048283;28;20434;-79
2023/12/11 02:04:28;;;;;;;6.40;6.20;;;11.70;37.60;;;;;;5051691;28;20888;-78
2023/12/11 02:06:54;;;;;;;6.63;6.43;;;11.80;37.10;;;;;;5044093;28;20491;-78
2023/12/11 02:09:19;;;;;;;6.63;6.43;;;11.90;36.70;;;;;;5061095;28;20447;-78
2023/12/11 02:12:07;;;;;;;6.40;6.10;;;11.90;36.40;;;;;;5043693;28;20719;-79
2023/12/11 02:14:32;;;;;;;6.70;6.40;;;12.00;36.10;;;;;;5062292;28;20229;-79
2023/12/11 02:16:58;;;;;;;7.47;7.17;;;12.00;36.00;;;;;;5054510;28;20430;-79
2023/12/11 02:19:24;;;;;;;7.20;7.00;;;12.00;35.40;;;;;;5051888;28;20195;-79
2023/12/11 02:21:49;;;;;;;7.60;7.40;;;11.80;35.70;;;;;;5046781;28;20173;-78
2023/12/11 02:24:20;;;;;;;7.23;7.03;;;11.80;36.60;;;;;;5048488;28;20211;-79
2023/12/11 02:26:48;;;;;;;7.87;7.67;;;11.70;36.40;;;;;;5067987;28;20184;-79
2023/12/11 02:29:13;;;;;;;7.30;7.10;;;11.60;37.50;;;;;;5051725;28;20509;-79
2023/12/11 02:31:39;;;;;;;7.17;6.97;;;11.70;37.70;;;;;;5048281;28;20451;-78
2023/12/11 02:34:04;;;;;;;7.77;7.57;;;11.60;36.80;;;;;;5063488;28;20263;-79
2023/12/11 02:36:30;;;;;;;6.50;6.20;;;11.60;37.90;;;;;;5054710;28;20192;-78
2023/12/11 02:38:55;;;;;;;6.80;6.60;;;11.60;37.90;;;;;;5051487;28;20175;-78
2023/12/11 02:41:21;;;;;;;7.10;6.80;;;11.70;38.00;;;;;;5049936;28;20184;-78
2023/12/11 02:43:47;;;;;;;7.20;7.00;;;11.80;38.00;;;;;;5043382;28;20255;-79
2023/12/11 02:46:12;;;;;;;7.37;7.17;;;11.90;37.90;;;;;;5046135;28;20676;-78
2023/12/11 02:48:38;;;;;;;7.43;7.17;;;11.90;37.70;;;;;;5050398;28;20245;-79
2023/12/11 02:51:04;;;;;;;7.47;7.27;;;11.80;37.40;;;;;;5049196;28;20188;-79
2023/12/11 02:53:29;;;;;;;7.00;6.80;;;11.80;37.70;;;;;;5048740;28;20207;-78
2023/12/11 02:55:55;;;;;;;7.10;6.90;;;11.70;37.60;;;;;;5047299;28;20475;-79
2023/12/11 02:58:20;;;;;;;7.17;6.97;;;11.60;38.10;;;;;;5048181;28;20181;-79
2023/12/11 03:00:46;;;;;;;6.80;6.60;;;11.60;39.20;;;;;;5050584;28;20213;-79
2023/12/11 03:03:11;;;;;;;7.10;6.90;;;11.60;39.00;;;;;;5057468;28;20204;-78
2023/12/11 03:05:37;;;;;;;6.90;6.70;;;11.60;39.30;;;;;;5048072;28;20669;-79
2023/12/11 03:08:04;;;;;;;7.07;6.77;;;11.70;39.50;;;;;;5046430;28;20691;-79
2023/12/11 03:10:30;;;;;;;7.00;6.67;;;11.80;39.50;;;;;;5064221;28;20189;-79
2023/12/11 03:12:55;;;;;;;6.60;6.40;;;11.80;39.30;;;;;;5050477;28;20461;-79
2023/12/11 03:15:21;;;;;;;7.13;6.93;;;11.80;39.20;;;;;;5050564;28;20211;-79
2023/12/11 03:17:47;;;;;;;7.37;7.17;;;11.90;39.20;;;;;;5047017;28;20271;-78
2023/12/11 03:20:12;;;;;;;7.70;7.50;;;11.90;39.10;;;;;;5062778;28;20180;-79
2023/12/11 03:22:38;;;;;;;7.73;7.47;;;11.90;39.60;;;;;;5045605;28;20451;-79
2023/12/11 03:25:04;;;;;;;7.70;7.50;;;11.90;39.40;;;;;;5056765;28;20187;-78
2023/12/11 03:27:29;;;;;;;8.27;7.97;;;12.00;39.40;;;;;;5064819;28;20194;-78
2023/12/11 03:29:55;;;;;;;7.90;7.70;;;12.00;38.90;;;;;;5051565;28;20423;-78
2023/12/11 03:32:20;;;;;;;8.00;7.70;;;12.00;39.00;;;;;;5059691;28;20274;-79
2023/12/11 03:34:46;;;;;;;7.27;7.07;;;12.00;39.00;;;;;;5053307;28;20199;-78
2023/12/11 03:37:12;;;;;;;7.50;7.30;;;12.00;39.10;;;;;;5052848;28;20581;-78
2023/12/11 03:39:38;;;;;;;6.93;6.73;;;12.00;39.30;;;;;;5057283;28;20184;-79
2023/12/11 03:42:04;;;;;;;7.50;7.30;;;12.00;39.20;;;;;;5050327;28;20427;-79
2023/12/11 03:44:29;;;;;;;8.33;8.03;;;12.00;39.60;;;;;;5049841;28;20204;-79
2023/12/11 03:46:55;;;;;;;7.40;7.20;;;12.00;39.40;;;;;;5049134;28;20192;-78
2023/12/11 03:49:21;;;;;;;7.73;7.43;;;12.00;39.40;;;;;;5063265;28;20184;-79
2023/12/11 03:51:47;;;;;;;8.53;8.23;;;12.00;39.30;;;;;;5067460;28;20647;-78
2023/12/11 03:54:13;;;;;;;7.30;7.10;;;12.00;39.10;;;;;;5052339;28;20815;-79
2023/12/11 03:56:39;;;;;;;8.13;7.87;;;12.10;39.40;;;;;;5049159;28;20461;-79
2023/12/11 03:59:05;;;;;;;7.00;6.80;;;11.90;39.10;;;;;;5046077;28;20265;-79
2023/12/11 04:01:31;;;;;;;7.43;7.23;;;11.90;39.70;;;;;;5049639;28;20426;-79
2023/12/11 04:03:56;;;;;;;7.30;7.10;;;11.90;40.00;;;;;;5043697;28;20207;-78
2023/12/11 04:06:22;;;;;;;7.93;7.73;;;11.90;40.20;;;;;;5049829;28;20180;-79
2023/12/11 04:08:47;;;;;;;8.03;7.83;;;11.80;39.70;;;;;;5048664;28;20844;-78
2023/12/11 04:11:13;;;;;;;7.30;7.10;;;11.80;40.70;;;;;;5049843;28;20204;-79
2023/12/11 04:13:38;;;;;;;8.27;7.97;;;11.80;40.80;;;;;;5047709;28;20267;-79
2023/12/11 04:16:05;;;;;;;7.33;7.13;;;11.90;40.80;;;;;;5062020;28;20264;-79
2023/12/11 04:18:31;;;;;;;7.03;6.83;;;11.90;40.50;;;;;;5052200;28;20191;-78
2023/12/11 04:20:57;;;;;;;7.90;7.60;;;11.80;39.60;;;;;;5057302;28;20426;-79
2023/12/11 04:23:23;;;;;;;7.73;7.53;;;11.60;40.70;;;;;;5064295;28;20484;-78
2023/12/11 04:25:48;;;;;;;6.83;6.63;;;11.50;41.90;;;;;;5056818;28;20214;-78
2023/12/11 04:28:14;;;;;;;7.30;7.10;;;11.40;42.00;;;;;;5057154;28;20462;-79
2023/12/11 04:30:40;;;;;;;7.87;7.67;;;11.30;42.80;;;;;;5054544;28;20187;-79
2023/12/11 04:33:05;;;;;;;7.57;7.37;;;11.20;43.40;;;;;;5046529;28;20315;-79
2023/12/11 04:35:31;;;;;;;7.77;7.57;;;11.10;43.90;;;;;;5046443;28;20236;-78
2023/12/11 04:37:56;;;;;;;7.53;7.20;;;11.10;44.10;;;;;;5049168;28;20243;-78
2023/12/11 04:40:22;;;;;;;6.07;5.77;;;11.00;44.50;;;;;;5049683;28;20221;-79
2023/12/11 04:42:47;;;;;;;6.67;6.47;;;11.00;44.80;;;;;;5060951;28;20201;-79
2023/12/11 04:45:13;;;;;;;7.20;7.00;;;11.00;44.80;;;;;;5046215;28;20172;-78
2023/12/11 04:47:38;;;;;;;7.40;7.20;;;11.00;45.00;;;;;;5047186;28;20236;-79
2023/12/11 04:50:04;;;;;;;6.67;6.37;;;11.10;44.10;;;;;;5049032;28;20184;-79
2023/12/11 04:52:30;;;;;;;6.40;6.20;;;11.10;43.80;;;;;;5046655;28;20224;-78
2023/12/11 04:54:57;;;;;;;6.80;6.60;;;11.00;44.30;;;;;;5045229;28;20459;-78
2023/12/11 04:57:22;;;;;;;6.20;6.00;;;10.90;44.90;;;;;;5045298;28;20593;-78
2023/12/11 04:59:48;;;;;;;6.57;6.37;;;10.90;45.10;;;;;;5048436;28;20415;-78
2023/12/11 05:02:14;;;;;;;6.80;6.50;;;11.10;44.70;;;;;;5048184;28;20188;-78
2023/12/11 05:04:39;;;;;;;6.17;5.97;;;11.10;43.70;;;;;;5040534;28;20246;-78
2023/12/11 05:07:06;;;;;;;6.13;5.93;;;11.10;43.70;;;;;;5048063;28;20180;-79
2023/12/11 05:09:31;;;;;;;6.20;5.90;;;11.10;42.90;;;;;;5047575;28;20179;-78
2023/12/11 05:11:57;;;;;;;6.53;6.33;;;11.20;43.30;;;;;;5044797;28;20844;-79
2023/12/11 05:14:22;;;;;;;6.73;6.43;;;11.40;42.80;;;;;;5060933;28;20283;-78
2023/12/11 05:16:48;;;;;;;6.00;5.90;;;11.40;41.00;;;;;;5054287;28;20203;-78
2023/12/11 05:19:13;;;;;;;7.20;7.00;;;11.50;41.30;;;;;;5048565;28;20549;-78
2023/12/11 05:21:44;;;;;;;6.57;6.37;;;11.70;40.80;;;;;;5053427;28;20184;-79
2023/12/11 05:24:09;;;;;;;7.13;6.83;;;11.80;40.10;;;;;;5044906;28;20742;-78
2023/12/11 05:26:35;;;;;;;7.17;6.87;;;11.80;40.00;;;;;;5050338;28;20487;-78
2023/12/11 05:29:00;;;;;;;7.50;7.30;;;12.00;38.80;;;;;;5046672;28;20191;-79
2023/12/11 05:31:26;;;;;;;6.87;6.60;;;12.00;38.30;;;;;;5053242;28;20210;-78
2023/12/11 05:33:51;;;;;;;7.50;7.23;;;11.90;38.10;;;;;;5058673;28;20207;-78
2023/12/11 05:36:17;;;;;;;7.50;7.30;;;12.00;37.80;;;;;;5048135;28;20208;-78
2023/12/11 05:38:42;;;;;;;7.73;7.43;;;12.00;37.40;;;;;;5045339;28;20184;-78
2023/12/11 05:41:08;;;;;;;7.60;7.30;;;12.00;37.00;;;;;;5043214;28;20172;-77
2023/12/11 05:43:33;;;;;;;7.50;7.30;;;12.00;36.80;;;;;;5070819;28;20312;-78
2023/12/11 05:45:59;;;;;;;7.93;7.63;;;11.90;37.00;;;;;;5046286;28;20177;-78
2023/12/11 05:48:24;;;;;;;7.33;7.13;;;11.90;36.70;;;;;;5047614;28;20326;-78
2023/12/11 05:50:50;;;;;;;7.07;6.77;;;12.00;36.70;;;;;;5050717;28;20188;-79
2023/12/11 05:53:15;;;;;;;7.93;7.53;;;11.90;36.70;;;;;;5066643;28;20226;-80
2023/12/11 05:55:41;;;;;;;8.47;8.07;;;12.00;36.50;;;;;;5065619;28;20248;-79
2023/12/11 05:58:06;;;;;;;7.30;7.00;;;11.80;36.50;;;;;;5045793;28;20202;-79
2023/12/11 06:00:32;;;;;;;7.37;7.13;;;11.50;37.90;;;;;;5067716;28;20210;-82
2023/12/11 06:02:57;;;;;;;8.20;7.77;;;11.30;38.40;;;;;;5048736;28;20211;-79
2023/12/11 06:05:24;;;;;;;8.03;7.73;;;11.10;39.50;;;;;;5063986;28;20253;-79
2023/12/11 06:07:49;;;;;;;7.13;6.83;;;10.80;40.80;;;;;;5049909;28;20184;-80
2023/12/11 06:10:15;;;;;;;6.60;6.40;;;10.70;41.60;;;;;;5052166;28;20758;-79
2023/12/11 08:19:33;;;;;;;6.80;6.60;;;10.90;37.90;;;;;;5472868;23;20492;-80
2023/12/11 08:21:59;;;;;;;7.00;6.40;;;10.90;37.50;;;;;;5071206;28;20888;-81
2023/12/11 08:24:47;;;;;;;7.47;7.20;;;11.00;37.40;;;;;;5053929;28;20446;-80
2023/12/11 08:27:18;;;;;;;7.13;6.83;;;11.10;37.00;;;;;;5049606;28;20438;-80
2023/12/11 08:29:44;;;;;;;7.40;7.10;;;11.10;36.50;;;;;;5034371;28;20461;-81
2023/12/11 08:32:10;;;;;;;7.20;6.90;;;11.20;36.40;;;;;;5050033;28;20441;-79
2023/12/11 08:34:36;;;;;;;7.47;7.17;;;11.40;36.10;;;;;;5058911;28;20454;-80
2023/12/11 08:37:43;;;;;;;7.23;7.03;;;11.50;35.60;;;;;;5057320;28;20190;-80
2023/12/11 08:40:13;;;;;;;8.10;7.80;;;11.60;33.90;;;;;;5050964;28;20258;-80
2023/12/11 08:43:01;;;;;;;6.70;6.50;;;11.70;33.40;;;;;;5057629;28;20435;-80
2023/12/11 08:45:34;;;;;;;7.30;7.00;;;11.60;33.40;;;;;;5044773;28;20438;-81
2023/12/11 08:48:03;;;;;;;7.43;7.13;;;11.60;33.60;;;;;;5057798;28;20418;-78
2023/12/11 08:50:55;;;;;;;;;;;;;;;;;;;;;
2023/12/11 08:53:31;;;;;;;8.50;8.20;;;11.50;32.90;;;;;;5043504;28;20526;-79
2023/12/11 08:56:23;;;;;;;8.33;7.90;;;11.60;33.40;;;;;;5056996;28;20480;-78
2023/12/11 08:58:57;;;;;;;7.90;7.50;;;11.60;33.30;;;;;;5039545;28;20530;-79
2023/12/11 09:01:57;;;;;;;7.97;7.57;;;11.70;33.00;;;;;;5039683;28;20418;-80
2023/12/11 09:04:35;;;;;;;8.13;7.87;;;11.70;33.10;;;;;;5057376;28;20431;-79
2023/12/11 09:07:41;;;;;;;;;;;;;;;;;;;;;
2023/12/11 09:10:35;;;;;;;7.93;7.73;;;11.70;33.00;;;;;;5057806;28;20477;-79
2023/12/11 09:13:31;;;;;;;8.90;8.60;;;11.80;33.10;;;;;;5057311;28;20422;-79
2023/12/11 09:16:08;;;;;;;9.20;8.73;;;11.80;32.20;;;;;;5040372;28;20822;-79
2023/12/11 09:19:31;;;;;;;8.10;7.80;;;11.80;31.90;;;;;;5038358;28;20445;-79
2023/12/11 09:22:02;;;;;;;8.67;8.27;;;11.80;31.50;;;;;;5052142;28;20433;-79
2023/12/11 09:32:03;;;;;;;7.90;7.60;;;11.80;31.40;;;;;;4981071;28;20997;-80
2023/12/11 09:34:36;;;;;;;8.50;8.20;;;11.80;31.60;;;;;;5057705;23;20628;-80
2023/12/11 09:37:22;;;;;;;8.27;7.87;;;11.80;31.40;;;;;;5056954;28;20938;-79
2023/12/11 09:39:48;;;;;;;8.23;7.83;;;11.80;31.30;;;;;;5049110;28;20450;-78
2023/12/11 09:44:47;;;;;;;8.80;8.43;;;12.00;31.80;;;;;;5077679;23;20476;-80
2023/12/11 09:47:31;;;;;;;7.33;7.03;;;12.00;31.20;;;;;;5068851;28;20430;-80
2023/12/11 09:57:11;;;;;;;8.43;8.13;;;12.30;31.60;;;;;;5032929;28;20419;-81
2023/12/11 09:59:38;;;;;;;7.90;7.60;;;12.30;29.70;;;;;;5065175;28;20421;-80
2023/12/11 10:02:45;;;;;;;8.07;7.50;;;12.30;29.90;;;;;;5080945;28;20409;-78
2023/12/11 10:05:36;;;;;;;8.07;7.77;;;12.30;29.40;;;;;;5023838;28;20515;-80
2023/12/11 10:08:02;;;;;;;8.20;7.80;;;12.20;29.50;;;;;;5011232;28;20471;-81
2023/12/11 10:10:33;;;;;;;8.13;7.80;;;12.20;29.80;;;;;;5081778;28;20402;-79
2023/12/11 10:12:59;;;;;;;7.97;7.67;;;12.20;30.00;;;;;;5081727;28;20498;-80
2023/12/11 10:15:35;;;;;;;8.70;8.30;;;12.20;30.20;;;;;;5064561;28;20537;-80
2023/12/11 10:18:03;;;;;;;9.00;8.60;;;12.40;30.70;;;;;;5082048;28;20435;-81
2023/12/11 10:20:29;;;;;;;8.23;7.93;;;12.40;29.70;;;;;;5079825;28;20405;-81
2023/12/11 10:22:55;;;;;;;8.70;8.37;;;12.40;29.50;;;;;;5080341;28;20524;-80
2023/12/11 10:25:28;;;;;;;8.80;8.50;;;12.50;29.30;;;;;;5079518;28;20448;-80
2023/12/11 10:28:08;;;;;;;7.43;7.13;;;12.50;29.80;;;;;;5080790;28;20405;-80
2023/12/11 10:31:04;;;;;;;8.90;8.40;;;12.50;29.50;;;;;;5077622;28;20412;-79
2023/12/11 10:33:30;;;;;;;8.20;7.80;;;12.60;29.90;;;;;;5059557;28;20438;-81
2023/12/11 10:36:12;;;;;;;8.73;8.43;;;12.60;30.00;;;;;;5058723;28;20457;-80
2023/12/11 10:38:39;;;;;;;7.37;6.97;;;12.60;29.30;;;;;;5040316;28;20765;-80
2023/12/11 10:41:05;;;;;;;7.90;7.50;;;12.60;29.90;;;;;;5047259;28;20413;-81
2023/12/11 10:43:41;;;;;;;7.47;7.17;;;12.70;28.90;;;;;;5061046;28;20453;-81
2023/12/11 10:46:07;;;;;;;7.40;7.03;;;12.70;28.90;;;;;;5059457;28;20499;-80
2023/12/11 10:48:38;;;;;;;7.33;6.67;;;12.80;29.40;;;;;;5076681;28;20409;-80
2023/12/11 10:51:04;;;;;;;6.67;6.20;;;12.80;28.20;;;;;;5070652;28;20263;-80
2023/12/11 10:53:29;;;;;;;6.70;6.30;;;12.80;28.20;;;;;;5055932;28;20458;-80
2023/12/11 10:55:58;;;;;;;6.50;6.20;;;12.80;27.60;;;;;;5056332;28;20564;-80
2023/12/11 10:58:25;;;;;;;6.23;5.83;;;12.80;27.50;;;;;;5056926;28;20176;-80
2023/12/11 11:00:52;;;;;;;8.97;7.70;;;12.80;27.50;;;;;;5046393;28;20955;-80
2023/12/11 11:03:19;;;;;;;7.30;6.90;;;12.80;27.50;;;;;;5074070;28;20444;-81
2023/12/11 11:05:46;;;;;;;6.90;6.50;;;12.80;27.80;;;;;;5074999;28;20465;-80
2023/12/11 11:08:32;;;;;;;6.90;6.57;;;12.90;27.00;;;;;;5072519;28;20417;-81
2023/12/11 11:11:14;;;;;;;7.37;6.97;;;12.90;26.90;;;;;;5078869;28;20505;-82
2023/12/11 11:14:13;;;;;;;7.20;6.90;;;12.90;27.10;;;;;;5059994;28;20532;-81
2023/12/11 11:16:58;;;;;;;8.40;7.90;;;12.90;26.80;;;;;;5077887;28;20434;-81
2023/12/11 11:19:25;;;;;;;7.73;7.40;;;13.00;26.40;;;;;;5061638;28;20431;-80
2023/12/11 11:22:00;;;;;;;7.67;7.27;;;13.10;26.80;;;;;;5079007;28;20422;-81
2023/12/11 11:24:26;;;;;;;7.87;7.47;;;13.10;25.90;;;;;;5080458;28;20424;-81
2023/12/11 11:26:52;;;;;;;8.33;7.83;;;13.20;26.00;;;;;;5062742;28;20439;-80
2023/12/11 11:29:40;;;;;;;7.23;6.87;;;13.20;25.40;;;;;;5067369;28;20410;-82
2023/12/11 11:32:06;;;;;;;7.13;6.70;;;13.10;25.60;;;;;;5062688;28;20213;-81
2023/12/11 11:34:40;;;;;;;8.10;7.57;;;13.10;25.30;;;;;;5080436;28;20458;-82
2023/12/11 11:37:17;;;;;;;7.10;6.80;;;13.20;25.40;;;;;;5080270;28;20181;-81
2023/12/11 11:39:58;;;;;;;7.07;6.67;;;13.30;25.10;;;;;;5081190;28;20412;-81
2023/12/11 11:42:25;;;;;;;12.10;7.30;;;13.30;24.30;;;;;;5062910;28;20418;-80
2023/12/11 11:44:56;;;;;;;7.47;6.87;;;13.30;24.10;;;;;;5063033;28;20761;-81
2023/12/11 11:47:22;;;;;;;7.87;7.30;;;13.30;23.50;;;;;;5080177;28;20962;-81
2023/12/11 11:49:47;;;;;;;7.83;7.13;;;13.20;24.10;;;;;;5079956;28;20424;-81
2023/12/11 11:52:14;;;;;;;7.17;6.83;;;13.20;23.90;;;;;;5078449;28;20184;-80
2023/12/11 11:54:40;;;;;;;7.83;7.30;;;13.10;22.80;;;;;;5079022;28;20192;-80
2023/12/11 11:57:06;;;;;;;6.63;6.33;;;13.10;23.00;;;;;;5078511;28;20413;-81
2023/12/11 11:59:41;;;;;;;9.50;8.70;;;13.10;23.10;;;;;;5078684;28;20416;-81
2023/12/11 12:02:06;;;;;;;8.90;8.03;;;13.00;23.80;;;;;;5079230;28;20419;-81
2023/12/11 12:04:33;;;;;;;7.67;6.90;;;13.00;23.50;;;;;;5078566;28;20529;-81
2023/12/11 12:07:08;;;;;;;8.00;7.30;;;13.10;22.90;;;;;;5078475;28;20175;-80
2023/12/11 12:09:34;;;;;;;7.70;7.10;;;13.00;22.70;;;;;;5079600;28;20873;-81
2023/12/11 12:12:00;;;;;;;7.80;7.00;;;13.00;22.90;;;;;;5078957;28;20936;-80
2023/12/11 12:14:26;;;;;;;7.60;7.00;;;13.00;22.70;;;;;;5068053;22;20577;-78
2023/12/11 12:16:52;;;;;;;7.73;7.23;;;12.90;21.80;;;;;;5035572;28;20463;-78
2023/12/11 12:19:32;;;;;;;7.17;6.70;;;13.00;22.60;;;;;;5046318;28;20670;-77
2023/12/11 12:21:58;;;;;;;9.63;7.00;;;12.80;21.90;;;;;;5049246;28;20237;-78
2023/12/11 12:24:25;;;;;;;7.80;7.20;;;12.80;21.30;;;;;;5033255;28;20846;-77
2023/12/11 12:27:05;;;;;;;10.03;7.20;;;12.80;21.00;;;;;;5019585;28;20423;-78
2023/12/11 12:29:32;;;;;;;7.83;7.13;;;12.80;20.70;;;;;;5049719;28;20426;-79
2023/12/11 12:31:59;;;;;;;8.00;7.40;;;12.90;21.10;;;;;;5046475;28;20450;-78
2023/12/11 12:34:26;;;;;;;7.47;6.80;;;13.00;20.90;;;;;;5026706;28;20447;-76
2023/12/11 12:36:54;;;;;;;7.47;6.77;;;13.00;20.30;;;;;;5043306;28;20427;-76
2023/12/11 12:39:20;;;;;;;6.80;6.30;;;13.10;20.20;;;;;;5046239;28;20930;-76
2023/12/11 12:41:49;;;;;;;7.93;7.23;;;13.10;20.30;;;;;;5028467;28;20426;-77
2023/12/11 12:44:19;;;;;;;7.60;7.10;;;13.10;20.30;;;;;;5033952;28;20207;-76
2023/12/11 12:46:45;;;;;;;7.50;7.10;;;13.10;20.30;;;;;;5023661;28;20814;-76
2023/12/11 12:49:17;;;;;;;8.13;7.33;;;13.10;20.20;;;;;;5044542;28;20991;-78
2023/12/11 12:51:53;;;;;;;7.90;7.37;;;13.10;20.50;;;;;;5044467;28;20427;-77
2023/12/11 12:54:19;;;;;;;7.63;7.13;;;13.00;20.70;;;;;;5032487;28;21005;-78
2023/12/11 12:56:53;;;;;;;7.50;7.00;;;13.10;20.80;;;;;;5039870;28;20424;-78
2023/12/11 12:59:19;;;;;;;7.70;6.93;;;13.10;20.70;;;;;;5022540;28;20442;-77
2023/12/11 13:01:45;;;;;;;8.43;7.77;;;13.10;20.20;;;;;;5026612;28;20431;-78
2023/12/11 13:04:12;;;;;;;7.90;7.30;;;13.20;20.40;;;;;;5025117;28;20450;-77
2023/12/11 13:06:38;;;;;;;8.63;8.00;;;13.20;20.30;;;;;;5041072;28;20266;-77
2023/12/11 13:09:04;;;;;;;8.30;7.70;;;13.20;20.50;;;;;;5043480;28;20426;-78
2023/12/11 13:11:47;;;;;;;8.40;7.70;;;13.20;20.00;;;;;;5037661;28;20510;-78
2023/12/11 13:14:13;;;;;;;7.60;7.10;;;13.10;20.20;;;;;;5043582;28;20525;-78
2023/12/11 13:16:43;;;;;;;7.80;7.40;;;13.10;20.30;;;;;;5045517;28;20427;-77
2023/12/11 13:19:09;;;;;;;9.10;8.50;;;13.10;20.10;;;;;;5040487;28;20441;-77
2023/12/11 13:21:35;;;;;;;7.90;7.40;;;13.10;20.50;;;;;;5041130;28;20431;-77
2023/12/11 13:24:01;;;;;;;8.53;7.77;;;13.10;21.00;;;;;;5042231;28;20439;-77
2023/12/11 13:26:28;;;;;;;8.60;7.90;;;13.00;21.10;;;;;;5026775;28;20433;-76
2023/12/11 13:28:53;;;;;;;8.27;7.67;;;13.00;21.20;;;;;;5044432;28;20176;-76
2023/12/11 13:31:19;;;;;;;7.60;7.10;;;13.00;21.10;;;;;;5041658;28;20446;-77
2023/12/11 13:33:45;;;;;;;8.07;7.43;;;13.00;21.40;;;;;;5023138;28;20208;-77
2023/12/11 13:36:14;;;;;;;8.30;7.63;;;13.10;21.70;;;;;;5042244;28;20197;-77
2023/12/11 13:38:40;;;;;;;7.60;7.20;;;13.10;21.50;;;;;;5026365;28;20180;-79
2023/12/11 13:41:06;;;;;;;8.73;7.60;;;13.20;21.60;;;;;;5043300;28;20451;-78
2023/12/11 13:43:32;;;;;;;7.17;6.67;;;13.10;21.50;;;;;;5023693;28;20447;-78
2023/12/11 13:45:59;;;;;;;8.30;7.70;;;13.10;21.70;;;;;;5042831;28;20427;-78
2023/12/11 13:48:25;;;;;;;7.30;6.70;;;13.10;21.70;;;;;;5028199;28;20180;-78
2023/12/11 13:50:51;;;;;;;7.77;7.37;;;13.00;21.60;;;;;;5037876;28;20439;-78
2023/12/11 13:53:16;;;;;;;8.50;7.97;;;13.10;21.50;;;;;;5045115;28;20210;-78
2023/12/11 13:55:42;;;;;;;8.60;8.00;;;13.00;21.60;;;;;;5045496;28;20208;-78
2023/12/11 13:58:08;;;;;;;8.80;8.30;;;12.90;21.80;;;;;;5025267;28;20222;-77
2023/12/11 14:00:33;;;;;;;8.67;8.07;;;12.90;22.10;;;;;;5047095;28;20610;-78
2023/12/11 14:02:59;;;;;;;8.07;7.67;;;12.90;22.80;;;;;;5027844;28;20453;-78
2023/12/11 14:05:24;;;;;;;8.33;7.53;;;12.90;22.40;;;;;;5033079;28;20283;-78
2023/12/11 14:07:52;;;;;;;8.33;7.83;;;13.00;22.40;;;;;;5029005;28;20196;-78
2023/12/11 14:10:17;;;;;;;9.37;8.77;;;12.90;22.70;;;;;;5031911;28;20218;-78
2023/12/11 14:12:43;;;;;;;8.60;7.97;;;12.90;22.60;;;;;;5051601;28;20454;-77
2023/12/11 14:15:09;;;;;;;9.10;8.60;;;13.00;22.50;;;;;;5031136;28;20203;-78
2023/12/11 14:17:35;;;;;;;8.23;7.70;;;13.00;22.60;;;;;;5052754;28;20188;-78
2023/12/11 14:20:00;;;;;;;10.10;9.50;;;12.80;23.00;;;;;;5023887;28;20437;-78
2023/12/11 14:22:27;;;;;;;10.10;9.33;;;12.70;23.20;;;;;;5029539;28;20197;-76
2023/12/11 14:24:53;;;;;;;9.67;9.00;;;12.60;23.70;;;;;;5009005;28;20185;-77
2023/12/11 14:27:18;;;;;;;9.50;8.97;;;12.50;23.50;;;;;;5029681;28;20537;-77
2023/12/11 14:29:44;;;;;;;8.87;8.27;;;12.50;23.70;;;;;;5024608;28;20971;-76
2023/12/11 14:32:10;;;;;;;8.60;7.90;;;12.50;23.60;;;;;;5028174;28;20678;-78
2023/12/11 14:34:40;;;;;;;9.90;8.70;;;12.40;23.10;;;;;;5026528;28;20459;-77
2023/12/11 14:37:09;;;;;;;7.63;7.13;;;12.50;22.30;;;;;;5044766;28;20427;-77
2023/12/11 14:39:35;;;;;;;8.60;8.00;;;12.50;22.20;;;;;;5046471;28;20918;-77
2023/12/11 14:42:01;;;;;;;9.47;8.60;;;12.50;21.90;;;;;;5046898;28;20473;-77
2023/12/11 14:44:27;;;;;;;11.87;9.03;;;12.60;21.70;;;;;;5048310;28;20449;-77
2023/12/11 14:46:52;;;;;;;9.37;8.50;;;12.60;21.30;;;;;;5048461;28;20482;-76
2023/12/11 14:49:19;;;;;;;9.37;8.40;;;12.60;21.20;;;;;;5043408;28;20210;-79
2023/12/11 14:51:48;;;;;;;9.43;8.67;;;12.70;20.50;;;;;;5042801;28;20208;-78
2023/12/11 14:54:13;;;;;;;9.37;8.57;;;12.60;20.60;;;;;;5018210;28;20447;-76
2023/12/11 14:56:39;;;;;;;7.30;6.90;;;12.70;20.70;;;;;;5047467;28;20433;-77
2023/12/11 14:59:04;;;;;;;9.37;8.27;;;12.60;20.20;;;;;;5045854;28;20282;-77
2023/12/11 15:01:30;;;;;;;8.73;8.03;;;12.60;20.20;;;;;;5043032;28;20200;-77
2023/12/11 15:03:55;;;;;;;8.50;7.80;;;12.50;20.40;;;;;;5023498;28;20200;-77
2023/12/11 15:06:22;;;;;;;8.60;7.80;;;12.50;20.20;;;;;;5039770;28;20687;-77
2023/12/11 15:08:48;;;;;;;9.07;8.43;;;12.50;20.60;;;;;;5023127;28;20210;-76
2023/12/11 15:11:15;;;;;;;12.03;8.80;;;12.40;20.40;;;;;;5040929;28;20420;-77
2023/12/11 15:13:41;;;;;;;11.80;8.20;;;12.40;20.40;;;;;;5039201;28;20459;-78
2023/12/11 15:16:07;;;;;;;9.60;8.73;;;12.40;20.70;;;;;;5025089;28;20490;-77
2023/12/11 15:18:32;;;;;;;10.90;8.73;;;12.40;20.70;;;;;;5044606;28;20180;-77